sensor_id;sensor_type;location;lat;lon;timestamp;temperature;humidity
39519;DHT22;25200;53.394;10.414;2023-04-01T00:00:16;11.30;92.00
39519;DHT22;25200;53.394;10.414;2023-04-01T00:02:42;11.30;92.00
39519;DHT22;25200;53.394;10.414;2023-04-01T00:05:08;11.30;92.00
39519;DHT22;25200;53.394;10.414;2023-04-01T00:07:36;11.30;92.00
39519;DHT22;25200;53.394;10.414;2023-04-01T00:10:03;11.30;92.00
39519;DHT22;25200;53.394;10.414;2023-04-01T00:12:29;11.20;92.00
39519;DHT22;25200;53.394;10.414;2023-04-01T00:14:55;11.20;92.00
39519;DHT22;25200;53.394;10.414;2023-04-01T00:17:21;11.20;92.00
39519;DHT22;25200;53.394;10.414;2023-04-01T00:19:46;11.20;92.00
39519;DHT22;25200;53.394;10.414;2023-04-01T00:22:12;11.20;92.00
39519;DHT22;25200;53.394;10.414;2023-04-01T00:24:38;11.20;92.00
39519;DHT22;25200;53.394;10.414;2023-04-01T00:27:04;11.20;92.00
39519;DHT22;25200;53.394;10.414;2023-04-01T00:29:30;11.20;92.00
39519;DHT22;25200;53.394;10.414;2023-04-01T00:31:57;11.20;92.00
39519;DHT22;25200;53.394;10.414;2023-04-01T00:34:23;11.20;92.00
39519;DHT22;25200;53.394;10.414;2023-04-01T00:36:50;11.20;92.00
39519;DHT22;25200;53.394;10.414;2023-04-01T00:39:16;11.20;92.00
39519;DHT22;25200;53.394;10.414;2023-04-01T00:41:42;11.10;92.00
39519;DHT22;25200;53.394;10.414;2023-04-01T00:44:18;11.20;92.00
39519;DHT22;25200;53.394;10.414;2023-04-01T00:46:45;11.20;92.00
39519;DHT22;25200;53.394;10.414;2023-04-01T00:49:10;11.20;92.10
39519;DHT22;25200;53.394;10.414;2023-04-01T00:51:37;11.10;92.00
39519;DHT22;25200;53.394;10.414;2023-04-01T00:54:05;11.10;92.00
39519;DHT22;25200;53.394;10.414;2023-04-01T00:56:37;11.10;92.00
39519;DHT22;25200;53.394;10.414;2023-04-01T00:59:11;11.10;92.00
39519;DHT22;25200;53.394;10.414;2023-04-01T01:01:38;11.10;92.00
39519;DHT22;25200;53.394;10.414;2023-04-01T01:04:04;11.10;92.10
39519;DHT22;25200;53.394;10.414;2023-04-01T01:06:39;11.10;92.00
39519;DHT22;25200;53.394;10.414;2023-04-01T01:14:44;11.10;92.10
39519;DHT22;25200;53.394;10.414;2023-04-01T01:17:47;11.10;92.10
39519;DHT22;25200;53.394;10.414;2023-04-01T01:28:37;11.00;92.10
39519;DHT22;25200;53.394;10.414;2023-04-01T01:31:43;11.00;92.10
39519;DHT22;25200;53.394;10.414;2023-04-01T01:34:28;11.00;92.10
39519;DHT22;25200;53.394;10.414;2023-04-01T01:37:02;11.00;92.10
39519;DHT22;25200;53.394;10.414;2023-04-01T01:39:31;11.00;92.10
39519;DHT22;25200;53.394;10.414;2023-04-01T01:42:02;11.00;92.10
39519;DHT22;25200;53.394;10.414;2023-04-01T01:44:30;11.00;92.10
39519;DHT22;25200;53.394;10.414;2023-04-01T01:46:58;11.00;92.10
39519;DHT22;25200;53.394;10.414;2023-04-01T01:49:24;11.00;92.10
39519;DHT22;25200;53.394;10.414;2023-04-01T01:51:50;11.00;92.10
39519;DHT22;25200;53.394;10.414;2023-04-01T01:54:17;11.00;92.10
39519;DHT22;25200;53.394;10.414;2023-04-01T01:56:46;11.00;92.10
39519;DHT22;25200;53.394;10.414;2023-04-01T01:59:14;11.00;92.10
39519;DHT22;25200;53.394;10.414;2023-04-01T02:01:48;11.00;92.10
39519;DHT22;25200;53.394;10.414;2023-04-01T02:04:16;11.00;92.10
39519;DHT22;25200;53.394;10.414;2023-04-01T02:06:48;11.00;92.10
39519;DHT22;25200;53.394;10.414;2023-04-01T02:09:15;10.90;92.10
39519;DHT22;25200;53.394;10.414;2023-04-01T02:11:48;10.90;92.10
39519;DHT22;25200;53.394;10.414;2023-04-01T02:14:43;10.90;92.10
39519;DHT22;25200;53.394;10.414;2023-04-01T02:17:20;11.00;92.10
39519;DHT22;25200;53.394;10.414;2023-04-01T02:22:21;11.00;92.10
39519;DHT22;25200;53.394;10.414;2023-04-01T02:24:51;10.90;92.10
39519;DHT22;25200;53.394;10.414;2023-04-01T02:27:20;10.90;92.10
39519;DHT22;25200;53.394;10.414;2023-04-01T02:29:45;10.90;92.10
39519;DHT22;25200;53.394;10.414;2023-04-01T02:32:13;10.90;92.10
39519;DHT22;25200;53.394;10.414;2023-04-01T02:34:40;10.90;92.10
39519;DHT22;25200;53.394;10.414;2023-04-01T02:37:06;10.90;92.10
39519;DHT22;25200;53.394;10.414;2023-04-01T02:39:32;10.90;92.10
39519;DHT22;25200;53.394;10.414;2023-04-01T02:41:58;10.90;92.10
39519;DHT22;25200;53.394;10.414;2023-04-01T02:44:23;10.80;92.10
39519;DHT22;25200;53.394;10.414;2023-04-01T02:46:49;10.80;92.10
39519;DHT22;25200;53.394;10.414;2023-04-01T02:49:15;10.90;92.10
39519;DHT22;25200;53.394;10.414;2023-04-01T02:51:40;10.90;92.10
39519;DHT22;25200;53.394;10.414;2023-04-01T02:54:06;10.90;92.10
39519;DHT22;25200;53.394;10.414;2023-04-01T02:56:32;10.90;92.10
39519;DHT22;25200;53.394;10.414;2023-04-01T02:58:57;10.90;92.10
39519;DHT22;25200;53.394;10.414;2023-04-01T03:01:23;10.90;92.10
39519;DHT22;25200;53.394;10.414;2023-04-01T03:03:49;10.90;92.10
39519;DHT22;25200;53.394;10.414;2023-04-01T03:06:16;10.90;92.10
39519;DHT22;25200;53.394;10.414;2023-04-01T03:08:42;10.90;92.10
39519;DHT22;25200;53.394;10.414;2023-04-01T03:11:09;10.90;92.10
39519;DHT22;25200;53.394;10.414;2023-04-01T03:13:35;10.90;92.10
39519;DHT22;25200;53.394;10.414;2023-04-01T03:16:01;10.90;92.20
39519;DHT22;25200;53.394;10.414;2023-04-01T03:18:26;10.90;92.10
39519;DHT22;25200;53.394;10.414;2023-04-01T03:20:52;10.90;92.10
39519;DHT22;25200;53.394;10.414;2023-04-01T03:23:18;10.90;92.10
39519;DHT22;25200;53.394;10.414;2023-04-01T03:25:46;10.90;92.10
39519;DHT22;25200;53.394;10.414;2023-04-01T03:28:12;10.90;92.10
39519;DHT22;25200;53.394;10.414;2023-04-01T03:30:38;10.90;92.10
39519;DHT22;25200;53.394;10.414;2023-04-01T03:33:05;10.90;92.10
39519;DHT22;25200;53.394;10.414;2023-04-01T03:35:30;10.90;92.10
39519;DHT22;25200;53.394;10.414;2023-04-01T03:37:57;10.80;92.10
39519;DHT22;25200;53.394;10.414;2023-04-01T03:40:23;10.80;92.10
39519;DHT22;25200;53.394;10.414;2023-04-01T03:42:49;10.90;92.10
39519;DHT22;25200;53.394;10.414;2023-04-01T03:45:15;10.90;92.20
39519;DHT22;25200;53.394;10.414;2023-04-01T03:47:41;10.90;92.20
39519;DHT22;25200;53.394;10.414;2023-04-01T03:50:07;10.80;92.10
39519;DHT22;25200;53.394;10.414;2023-04-01T03:52:34;10.80;92.10
39519;DHT22;25200;53.394;10.414;2023-04-01T03:55:00;10.80;92.20
39519;DHT22;25200;53.394;10.414;2023-04-01T03:57:26;10.80;92.20
39519;DHT22;25200;53.394;10.414;2023-04-01T03:59:52;10.80;92.20
39519;DHT22;25200;53.394;10.414;2023-04-01T04:02:18;10.80;92.10
39519;DHT22;25200;53.394;10.414;2023-04-01T04:04:44;10.80;92.20
39519;DHT22;25200;53.394;10.414;2023-04-01T04:07:12;10.80;92.20
39519;DHT22;25200;53.394;10.414;2023-04-01T04:09:37;10.80;92.10
39519;DHT22;25200;53.394;10.414;2023-04-01T04:12:03;10.80;92.20
39519;DHT22;25200;53.394;10.414;2023-04-01T04:14:30;10.80;92.20
39519;DHT22;25200;53.394;10.414;2023-04-01T04:16:56;10.80;92.20
39519;DHT22;25200;53.394;10.414;2023-04-01T04:19:22;10.80;92.20
39519;DHT22;25200;53.394;10.414;2023-04-01T04:21:47;10.80;92.20
39519;DHT22;25200;53.394;10.414;2023-04-01T04:24:13;10.80;92.20
39519;DHT22;25200;53.394;10.414;2023-04-01T04:26:39;10.80;92.20
39519;DHT22;25200;53.394;10.414;2023-04-01T04:29:05;10.80;92.20
39519;DHT22;25200;53.394;10.414;2023-04-01T04:31:30;10.80;92.20
39519;DHT22;25200;53.394;10.414;2023-04-01T04:33:56;10.80;92.20
39519;DHT22;25200;53.394;10.414;2023-04-01T04:36:23;10.80;92.20
39519;DHT22;25200;53.394;10.414;2023-04-01T04:38:49;10.80;92.20
39519;DHT22;25200;53.394;10.414;2023-04-01T04:41:16;10.80;92.20
39519;DHT22;25200;53.394;10.414;2023-04-01T04:43:52;10.80;92.20
39519;DHT22;25200;53.394;10.414;2023-04-01T04:46:18;10.80;92.20
39519;DHT22;25200;53.394;10.414;2023-04-01T04:48:44;10.80;92.20
39519;DHT22;25200;53.394;10.414;2023-04-01T04:51:13;10.80;92.20
39519;DHT22;25200;53.394;10.414;2023-04-01T04:53:40;10.80;92.20
39519;DHT22;25200;53.394;10.414;2023-04-01T04:56:06;10.80;92.20
39519;DHT22;25200;53.394;10.414;2023-04-01T04:58:32;10.80;92.20
39519;DHT22;25200;53.394;10.414;2023-04-01T05:00:57;10.80;92.20
39519;DHT22;25200;53.394;10.414;2023-04-01T05:03:23;10.80;92.20
39519;DHT22;25200;53.394;10.414;2023-04-01T05:05:51;10.80;92.20
39519;DHT22;25200;53.394;10.414;2023-04-01T05:08:16;10.80;92.20
39519;DHT22;25200;53.394;10.414;2023-04-01T05:10:42;10.80;92.20
39519;DHT22;25200;53.394;10.414;2023-04-01T05:13:08;10.80;92.20
39519;DHT22;25200;53.394;10.414;2023-04-01T05:15:34;10.80;92.20
39519;DHT22;25200;53.394;10.414;2023-04-01T05:18:00;10.80;92.20
39519;DHT22;25200;53.394;10.414;2023-04-01T05:20:25;10.80;92.20
39519;DHT22;25200;53.394;10.414;2023-04-01T05:22:56;10.80;92.20
39519;DHT22;25200;53.394;10.414;2023-04-01T05:25:21;10.80;92.30
39519;DHT22;25200;53.394;10.414;2023-04-01T05:27:47;10.80;92.30
39519;DHT22;25200;53.394;10.414;2023-04-01T05:30:12;10.80;92.30
39519;DHT22;25200;53.394;10.414;2023-04-01T05:32:38;10.80;92.20
39519;DHT22;25200;53.394;10.414;2023-04-01T05:35:04;10.80;92.30
39519;DHT22;25200;53.394;10.414;2023-04-01T05:37:30;10.80;92.30
39519;DHT22;25200;53.394;10.414;2023-04-01T05:39:56;10.80;92.30
39519;DHT22;25200;53.394;10.414;2023-04-01T05:42:24;10.80;92.30
39519;DHT22;25200;53.394;10.414;2023-04-01T05:44:49;10.80;92.30
39519;DHT22;25200;53.394;10.414;2023-04-01T05:47:15;10.80;92.30
39519;DHT22;25200;53.394;10.414;2023-04-01T05:49:40;10.80;92.30
39519;DHT22;25200;53.394;10.414;2023-04-01T05:52:06;10.80;92.30
39519;DHT22;25200;53.394;10.414;2023-04-01T05:54:32;10.90;92.30
39519;DHT22;25200;53.394;10.414;2023-04-01T05:56:58;10.80;92.30
39519;DHT22;25200;53.394;10.414;2023-04-01T05:59:23;10.80;92.30
39519;DHT22;25200;53.394;10.414;2023-04-01T06:01:49;10.80;92.40
39519;DHT22;25200;53.394;10.414;2023-04-01T06:04:16;10.90;92.40
39519;DHT22;25200;53.394;10.414;2023-04-01T06:06:43;10.80;92.40
39519;DHT22;25200;53.394;10.414;2023-04-01T06:09:18;10.80;92.40
39519;DHT22;25200;53.394;10.414;2023-04-01T06:14:39;10.80;92.40
39519;DHT22;25200;53.394;10.414;2023-04-01T06:26:23;10.70;92.40
39519;DHT22;25200;53.394;10.414;2023-04-01T06:29:08;10.70;92.60
39519;DHT22;25200;53.394;10.414;2023-04-01T06:34:36;10.60;92.40
39519;DHT22;25200;53.394;10.414;2023-04-01T06:37:07;10.60;92.40
39519;DHT22;25200;53.394;10.414;2023-04-01T06:42:26;10.60;92.40
39519;DHT22;25200;53.394;10.414;2023-04-01T06:45:28;10.60;92.40
39519;DHT22;25200;53.394;10.414;2023-04-01T06:53:11;10.50;92.40
39519;DHT22;25200;53.394;10.414;2023-04-01T06:56:18;10.50;92.40
39519;DHT22;25200;53.394;10.414;2023-04-01T06:58:42;10.50;92.40
39519;DHT22;25200;53.394;10.414;2023-04-01T07:01:19;10.50;92.40
39519;DHT22;25200;53.394;10.414;2023-04-01T07:04:02;10.50;92.40
39519;DHT22;25200;53.394;10.414;2023-04-01T07:06:35;10.50;92.30
39519;DHT22;25200;53.394;10.414;2023-04-01T07:09:05;10.50;92.40
39519;DHT22;25200;53.394;10.414;2023-04-01T07:11:34;10.40;92.30
39519;DHT22;25200;53.394;10.414;2023-04-01T07:16:49;10.50;92.30
39519;DHT22;25200;53.394;10.414;2023-04-01T07:19:29;10.40;92.30
39519;DHT22;25200;53.394;10.414;2023-04-01T07:24:44;10.40;92.30
39519;DHT22;25200;53.394;10.414;2023-04-01T07:27:13;10.40;92.20
39519;DHT22;25200;53.394;10.414;2023-04-01T07:29:39;10.40;92.20
39519;DHT22;25200;53.394;10.414;2023-04-01T07:34:46;10.40;92.20
39519;DHT22;25200;53.394;10.414;2023-04-01T07:43:18;10.40;92.20
39519;DHT22;25200;53.394;10.414;2023-04-01T07:46:08;10.30;92.10
39519;DHT22;25200;53.394;10.414;2023-04-01T07:48:38;10.30;92.10
39519;DHT22;25200;53.394;10.414;2023-04-01T07:56:35;10.20;92.10
39519;DHT22;25200;53.394;10.414;2023-04-01T07:59:38;10.20;92.10
39519;DHT22;25200;53.394;10.414;2023-04-01T08:04:57;10.20;92.10
39519;DHT22;25200;53.394;10.414;2023-04-01T08:07:27;10.20;92.10
39519;DHT22;25200;53.394;10.414;2023-04-01T08:12:38;10.20;92.10
39519;DHT22;25200;53.394;10.414;2023-04-01T08:18:07;10.10;92.00
39519;DHT22;25200;53.394;10.414;2023-04-01T08:20:51;10.10;92.00
39519;DHT22;25200;53.394;10.414;2023-04-01T08:23:37;10.10;92.00
39519;DHT22;25200;53.394;10.414;2023-04-01T08:32:00;10.10;92.00
39519;DHT22;25200;53.394;10.414;2023-04-01T08:34:34;10.10;92.30
39519;DHT22;25200;53.394;10.414;2023-04-01T08:37:10;10.10;92.00
39519;DHT22;25200;53.394;10.414;2023-04-01T08:39:54;10.00;92.20
39519;DHT22;25200;53.394;10.414;2023-04-01T08:47:54;10.00;92.00
39519;DHT22;25200;53.394;10.414;2023-04-01T08:53:47;9.90;92.00
39519;DHT22;25200;53.394;10.414;2023-04-01T08:56:56;9.90;91.90
39519;DHT22;25200;53.394;10.414;2023-04-01T08:59:45;9.90;92.00
39519;DHT22;25200;53.394;10.414;2023-04-01T09:16:49;9.90;91.90
39519;DHT22;25200;53.394;10.414;2023-04-01T09:22:07;9.90;91.90
39519;DHT22;25200;53.394;10.414;2023-04-01T09:45:54;9.90;91.80
39519;DHT22;25200;53.394;10.414;2023-04-01T09:51:22;9.80;91.80
39519;DHT22;25200;53.394;10.414;2023-04-01T10:20:21;9.80;91.70
39519;DHT22;25200;53.394;10.414;2023-04-01T10:48:51;9.70;91.70
39519;DHT22;25200;53.394;10.414;2023-04-01T10:57:09;9.80;91.80
39519;DHT22;25200;53.394;10.414;2023-04-01T11:19:34;9.90;91.60
39519;DHT22;25200;53.394;10.414;2023-04-01T11:28:00;9.90;91.60
39519;DHT22;25200;53.394;10.414;2023-04-01T12:00:23;9.80;91.60
39519;DHT22;25200;53.394;10.414;2023-04-01T12:05:48;9.80;91.50
39519;DHT22;25200;53.394;10.414;2023-04-01T12:12:25;9.70;91.50
39519;DHT22;25200;53.394;10.414;2023-04-01T12:14:50;9.70;91.50
39519;DHT22;25200;53.394;10.414;2023-04-01T12:20:24;9.70;91.60
39519;DHT22;25200;53.394;10.414;2023-04-01T12:24:14;9.70;91.60
39519;DHT22;25200;53.394;10.414;2023-04-01T12:47:19;9.60;91.50
39519;DHT22;25200;53.394;10.414;2023-04-01T12:49:37;9.60;91.50
39519;DHT22;25200;53.394;10.414;2023-04-01T12:52:14;9.60;91.50
39519;DHT22;25200;53.394;10.414;2023-04-01T12:55:02;9.60;91.50
39519;DHT22;25200;53.394;10.414;2023-04-01T12:58:12;9.60;91.40
39519;DHT22;25200;53.394;10.414;2023-04-01T13:06:09;9.50;91.40
39519;DHT22;25200;53.394;10.414;2023-04-01T13:14:09;9.50;91.30
39519;DHT22;25200;53.394;10.414;2023-04-01T13:17:07;9.50;91.30
39519;DHT22;25200;53.394;10.414;2023-04-01T13:19:50;9.50;91.30
39519;DHT22;25200;53.394;10.414;2023-04-01T13:28:15;9.40;91.30
39519;DHT22;25200;53.394;10.414;2023-04-01T13:38:56;9.30;91.20
39519;DHT22;25200;53.394;10.414;2023-04-01T13:44:21;9.30;91.30
39519;DHT22;25200;53.394;10.414;2023-04-01T13:47:00;9.30;91.30
39519;DHT22;25200;53.394;10.414;2023-04-01T14:03:27;9.20;91.20
39519;DHT22;25200;53.394;10.414;2023-04-01T14:36:56;9.00;91.20
39519;DHT22;25200;53.394;10.414;2023-04-01T14:45:19;9.00;91.10
39519;DHT22;25200;53.394;10.414;2023-04-01T14:50:47;8.90;91.10
39519;DHT22;25200;53.394;10.414;2023-04-01T14:58:22;8.90;91.10
39519;DHT22;25200;53.394;10.414;2023-04-01T15:26:28;8.70;91.10
39519;DHT22;25200;53.394;10.414;2023-04-01T15:31:55;8.60;91.10
39519;DHT22;25200;53.394;10.414;2023-04-01T15:45:58;8.50;91.00
39519;DHT22;25200;53.394;10.414;2023-04-01T15:53:44;8.50;91.10
39519;DHT22;25200;53.394;10.414;2023-04-01T15:59:42;8.40;91.10
39519;DHT22;25200;53.394;10.414;2023-04-01T16:04:54;8.40;91.10
39519;DHT22;25200;53.394;10.414;2023-04-01T16:29:12;8.30;90.90
39519;DHT22;25200;53.394;10.414;2023-04-01T16:31:57;8.20;90.70
39519;DHT22;25200;53.394;10.414;2023-04-01T16:34:31;8.10;90.80
39519;DHT22;25200;53.394;10.414;2023-04-01T16:39:54;8.10;90.90
39519;DHT22;25200;53.394;10.414;2023-04-01T16:42:40;8.00;90.80
39519;DHT22;25200;53.394;10.414;2023-04-01T16:48:13;8.00;90.90
39519;DHT22;25200;53.394;10.414;2023-04-01T16:51:03;8.00;90.90
39519;DHT22;25200;53.394;10.414;2023-04-01T16:53:53;8.00;90.90
39519;DHT22;25200;53.394;10.414;2023-04-01T16:56:52;7.90;90.80
39519;DHT22;25200;53.394;10.414;2023-04-01T16:59:29;7.90;90.80
39519;DHT22;25200;53.394;10.414;2023-04-01T17:04:32;7.80;90.90
39519;DHT22;25200;53.394;10.414;2023-04-01T17:13:31;7.80;90.90
39519;DHT22;25200;53.394;10.414;2023-04-01T17:21:43;7.70;90.80
39519;DHT22;25200;53.394;10.414;2023-04-01T17:32:09;7.60;90.90
39519;DHT22;25200;53.394;10.414;2023-04-01T17:43:24;7.60;90.80
39519;DHT22;25200;53.394;10.414;2023-04-01T17:45:56;7.60;90.90
39519;DHT22;25200;53.394;10.414;2023-04-01T17:48:38;7.50;90.80
39519;DHT22;25200;53.394;10.414;2023-04-01T18:21:07;7.30;90.70
39519;DHT22;25200;53.394;10.414;2023-04-01T18:26:32;7.20;90.70
39519;DHT22;25200;53.394;10.414;2023-04-01T18:29:13;7.20;90.70
39519;DHT22;25200;53.394;10.414;2023-04-01T18:31:51;7.20;90.70
39519;DHT22;25200;53.394;10.414;2023-04-01T18:40:00;7.10;90.60
39519;DHT22;25200;53.394;10.414;2023-04-01T18:45:36;7.10;90.60
39519;DHT22;25200;53.394;10.414;2023-04-01T18:50:58;7.00;90.50
39519;DHT22;25200;53.394;10.414;2023-04-01T18:53:45;7.00;90.50
39519;DHT22;25200;53.394;10.414;2023-04-01T18:56:38;6.90;90.40
39519;DHT22;25200;53.394;10.414;2023-04-01T18:59:15;6.90;90.40
39519;DHT22;25200;53.394;10.414;2023-04-01T19:04:39;6.80;90.30
39519;DHT22;25200;53.394;10.414;2023-04-01T19:21:44;6.70;90.40
39519;DHT22;25200;53.394;10.414;2023-04-01T19:27:14;6.70;90.30
39519;DHT22;25200;53.394;10.414;2023-04-01T19:37:45;6.60;90.20
39519;DHT22;25200;53.394;10.414;2023-04-01T19:40:38;6.60;90.50
39519;DHT22;25200;53.394;10.414;2023-04-01T19:51:53;6.50;90.20
39519;DHT22;25200;53.394;10.414;2023-04-01T19:57:37;6.50;90.20
39519;DHT22;25200;53.394;10.414;2023-04-01T20:05:49;6.40;90.10
39519;DHT22;25200;53.394;10.414;2023-04-01T20:08:42;6.30;90.00
39519;DHT22;25200;53.394;10.414;2023-04-01T20:11:35;6.30;90.00
39519;DHT22;25200;53.394;10.414;2023-04-01T20:16:58;6.30;89.90
39519;DHT22;25200;53.394;10.414;2023-04-01T20:19:40;6.20;89.90
39519;DHT22;25200;53.394;10.414;2023-04-01T20:27:57;6.10;89.90
39519;DHT22;25200;53.394;10.414;2023-04-01T20:46:30;5.90;89.70
39519;DHT22;25200;53.394;10.414;2023-04-01T20:54:44;5.80;89.80
39519;DHT22;25200;53.394;10.414;2023-04-01T20:57:14;5.70;89.70
39519;DHT22;25200;53.394;10.414;2023-04-01T21:17:06;5.50;89.50
39519;DHT22;25200;53.394;10.414;2023-04-01T21:23:10;5.50;89.50
39519;DHT22;25200;53.394;10.414;2023-04-01T21:28:35;5.40;89.50
39519;DHT22;25200;53.394;10.414;2023-04-01T21:53:17;5.20;89.20
39519;DHT22;25200;53.394;10.414;2023-04-01T22:06:22;5.10;89.20
39519;DHT22;25200;53.394;10.414;2023-04-01T22:14:31;5.00;89.20
39519;DHT22;25200;53.394;10.414;2023-04-01T22:17:00;5.00;89.20
39519;DHT22;25200;53.394;10.414;2023-04-01T22:30:19;4.80;89.10
39519;DHT22;25200;53.394;10.414;2023-04-01T22:32:47;4.80;89.00
39519;DHT22;25200;53.394;10.414;2023-04-01T22:40:25;4.80;89.20
39519;DHT22;25200;53.394;10.414;2023-04-01T22:43:06;4.70;89.10
39519;DHT22;25200;53.394;10.414;2023-04-01T22:45:48;4.70;89.10
39519;DHT22;25200;53.394;10.414;2023-04-01T22:50:58;4.70;89.20
39519;DHT22;25200;53.394;10.414;2023-04-01T22:53:45;4.70;89.10
39519;DHT22;25200;53.394;10.414;2023-04-01T22:56:40;4.70;89.10
39519;DHT22;25200;53.394;10.414;2023-04-01T22:59:17;4.60;89.10
39519;DHT22;25200;53.394;10.414;2023-04-01T23:01:51;4.60;89.00
39519;DHT22;25200;53.394;10.414;2023-04-01T23:04:21;4.60;89.10
39519;DHT22;25200;53.394;10.414;2023-04-01T23:06:53;4.50;89.10
39519;DHT22;25200;53.394;10.414;2023-04-01T23:09:23;4.50;89.10
39519;DHT22;25200;53.394;10.414;2023-04-01T23:12:07;4.50;89.20
39519;DHT22;25200;53.394;10.414;2023-04-01T23:14:47;4.40;89.10
39519;DHT22;25200;53.394;10.414;2023-04-01T23:20:15;4.40;89.10
39519;DHT22;25200;53.394;10.414;2023-04-01T23:25:58;4.40;89.10
39519;DHT22;25200;53.394;10.414;2023-04-01T23:28:47;4.40;89.10
39519;DHT22;25200;53.394;10.414;2023-04-01T23:34:02;4.30;89.10
39519;DHT22;25200;53.394;10.414;2023-04-01T23:36:30;4.30;89.10
39519;DHT22;25200;53.394;10.414;2023-04-01T23:39:03;4.30;89.30
39519;DHT22;25200;53.394;10.414;2023-04-01T23:41:31;4.30;89.20
39519;DHT22;25200;53.394;10.414;2023-04-01T23:44:12;4.20;89.20
39519;DHT22;25200;53.394;10.414;2023-04-01T23:46:40;4.20;89.20
39519;DHT22;25200;53.394;10.414;2023-04-01T23:49:37;4.20;89.10
39519;DHT22;25200;53.394;10.414;2023-04-01T23:52:13;4.20;89.10
39519;DHT22;25200;53.394;10.414;2023-04-01T23:57:24;4.20;89.10
